createdAt,value
2018-05-01T09:11:36.510Z,78.22
2018-05-01T09:12:37.283Z,78.22
2018-05-01T09:13:37.969Z,78.31
2018-05-01T09:14:38.661Z,78.70
2018-05-01T09:15:39.364Z,78.60
2018-05-01T09:16:40.050Z,78.55
2018-05-01T09:17:40.739Z,78.36
2018-05-01T09:18:41.410Z,78.07
2018-05-01T09:19:42.085Z,76.92
2018-05-01T09:20:42.768Z,77.11
2018-05-01T09:21:43.489Z,77.01
2018-05-01T09:22:44.125Z,76.54
2018-05-01T09:23:44.815Z,76.10
2018-05-01T09:24:45.489Z,75.52
2018-05-01T09:25:46.169Z,75.14
2018-05-01T09:26:46.850Z,75.14
2018-05-01T09:27:47.552Z,75.14
2018-05-01T09:28:48.229Z,74.91
2018-05-01T09:29:48.908Z,75.30
2018-05-01T09:30:49.590Z,75.62
2018-05-01T09:31:50.280Z,75.14
2018-05-01T09:32:50.959Z,74.95
2018-05-01T09:33:51.639Z,75.30
2018-05-01T09:34:52.315Z,75.52
2018-05-01T09:35:53.000Z,74.28
2018-05-01T09:36:53.678Z,74.34
2018-05-01T09:37:54.361Z,75.01
2018-05-01T09:38:55.039Z,74.73
2018-05-01T09:39:55.733Z,74.05
2018-05-01T09:40:56.416Z,74.69
2018-05-01T09:41:57.109Z,74.53
2018-05-01T09:42:57.803Z,74.73
2018-05-01T09:43:58.477Z,74.34
2018-05-01T09:44:59.160Z,74.82
2018-05-01T09:45:59.850Z,74.82
2018-05-01T09:47:00.528Z,75.10
2018-05-01T09:48:01.216Z,74.82
2018-05-01T09:49:01.896Z,74.82
2018-05-01T09:50:02.582Z,74.82
2018-05-01T09:51:03.276Z,74.24
2018-05-01T09:52:03.953Z,74.05
2018-05-01T09:53:04.645Z,73.61
2018-05-01T09:54:05.331Z,72.91
2018-05-01T09:55:06.012Z,73.96
2018-05-01T09:56:06.699Z,73.52
2018-05-01T09:57:07.380Z,73.43
2018-05-01T09:58:08.055Z,72.94
2018-05-01T09:59:08.741Z,73.14
2018-05-01T10:00:09.418Z,72.28
2018-05-01T10:01:10.096Z,73.04
2018-05-01T10:02:10.782Z,72.47
2018-05-01T10:03:11.458Z,72.37
2018-05-01T10:04:12.136Z,72.28
2018-05-01T10:05:12.833Z,72.47
2018-05-01T10:06:13.519Z,72.18
2018-05-01T10:07:14.199Z,72.37
2018-05-01T10:08:14.884Z,71.70
2018-05-01T10:09:15.568Z,72.24
2018-05-01T10:10:16.242Z,73.48
2018-05-01T10:11:16.917Z,73.48
2018-05-01T10:12:17.665Z,73.58
2018-05-01T10:13:18.277Z,73.48
2018-05-01T10:14:18.952Z,73.43
2018-05-01T10:15:19.633Z,73.71
2018-05-01T10:16:20.314Z,73.61
2018-05-01T10:17:20.997Z,73.39
2018-05-01T10:18:21.678Z,73.29
2018-05-01T10:19:22.361Z,73.10
2018-05-01T10:20:23.051Z,73.23
2018-05-01T10:21:23.735Z,73.14
2018-05-01T10:22:24.419Z,73.52
2018-05-01T10:23:25.099Z,73.14
2018-05-01T10:24:25.790Z,73.36
2018-05-01T10:25:26.481Z,72.60
2018-05-01T10:26:27.163Z,72.22
2018-05-01T10:27:27.841Z,71.55
2018-05-01T10:28:28.520Z,71.16
2018-05-01T10:29:29.213Z,70.59
2018-05-01T10:30:29.955Z,70.01
2018-05-01T10:31:30.568Z,69.73
2018-05-01T10:32:31.252Z,69.44
2018-05-01T10:33:31.929Z,69.35
2018-05-01T10:34:32.607Z,69.48
2018-05-01T10:35:33.291Z,68.77
2018-05-01T10:36:33.969Z,69.57
2018-05-01T10:37:34.655Z,68.80
2018-05-01T10:38:35.398Z,67.85
2018-05-01T10:39:36.026Z,68.29
2018-05-01T10:40:36.700Z,68.96
2018-05-01T10:41:37.392Z,68.71
2018-05-01T10:42:38.068Z,69.29
2018-05-01T10:43:38.746Z,68.36
2018-05-01T10:44:39.440Z,67.37
2018-05-01T10:45:40.135Z,67.27
2018-05-01T10:46:40.812Z,67.27
2018-05-01T10:47:41.495Z,67.85
2018-05-01T10:48:42.200Z,67.47
2018-05-01T10:49:42.880Z,67.76
2018-05-01T10:50:43.560Z,67.79
2018-05-01T10:51:44.243Z,66.96
2018-05-01T10:52:44.924Z,66.00
2018-05-01T10:53:45.609Z,66.89
2018-05-01T10:54:46.317Z,64.69
2018-05-01T10:55:46.984Z,65.20
2018-05-01T10:56:47.674Z,64.76
2018-05-01T10:57:48.352Z,63.96
2018-05-01T10:58:49.053Z,64.76
2018-05-01T10:59:49.730Z,63.86
2018-05-01T11:00:50.417Z,63.48
2018-05-01T11:01:51.096Z,62.84
2018-05-01T11:02:51.779Z,62.36
2018-05-01T11:03:52.464Z,63.60
2018-05-01T11:04:53.149Z,62.84
2018-05-01T11:05:53.828Z,62.55
2018-05-01T11:06:54.516Z,63.03
2018-05-01T11:07:55.198Z,63.79
2018-05-01T11:08:55.883Z,63.00
2018-05-01T11:09:56.563Z,63.86
2018-05-01T11:10:57.244Z,63.96
2018-05-01T11:11:57.959Z,63.57
2018-05-01T11:12:58.608Z,64.05
2018-05-01T11:13:59.290Z,64.63
2018-05-01T11:14:59.967Z,64.02
2018-05-01T11:16:00.649Z,63.92
2018-05-01T11:17:01.330Z,65.49
2018-05-01T11:18:02.040Z,64.72
2018-05-01T11:19:02.749Z,64.12
2018-05-01T11:20:03.427Z,64.79
2018-05-01T11:21:04.109Z,66.32
2018-05-01T11:22:04.787Z,66.35
2018-05-01T11:23:05.472Z,64.92
2018-05-01T11:24:06.159Z,64.92
2018-05-01T11:25:06.846Z,65.30
2018-05-01T11:26:07.587Z,65.05
2018-05-01T11:27:08.213Z,64.95
2018-05-01T11:28:08.905Z,64.66
2018-05-01T11:29:09.584Z,63.03
2018-05-01T11:30:10.276Z,64.31
2018-05-01T11:31:10.972Z,63.09
2018-05-01T11:32:11.661Z,62.32
2018-05-01T11:33:12.348Z,61.75
2018-05-01T11:34:13.046Z,61.30
2018-05-01T11:35:13.728Z,60.37
2018-05-01T11:36:14.410Z,58.98
2018-05-01T11:37:15.088Z,56.96
2018-05-01T11:38:15.785Z,55.16
2018-05-01T11:39:16.461Z,55.23
2018-05-01T11:40:17.150Z,54.94
2018-05-01T11:41:17.832Z,56.33
2018-05-01T11:42:18.519Z,56.74
2018-05-01T11:43:19.201Z,56.87
2018-05-01T11:44:19.888Z,55.16
2018-05-01T11:45:20.577Z,54.80
2018-05-01T11:46:21.327Z,53.67
2018-05-01T11:47:21.949Z,53.70
2018-05-01T11:48:22.635Z,51.84
2018-05-01T11:49:23.314Z,52.97
2018-05-01T11:50:24.004Z,52.66
2018-05-01T11:51:24.706Z,53.45
2018-05-01T11:52:25.378Z,53.87
2018-05-01T11:53:26.058Z,52.52
2018-05-01T11:54:26.744Z,53.67
2018-05-01T11:55:27.435Z,52.91
2018-05-01T11:56:28.118Z,51.89
2018-05-01T11:57:28.799Z,51.82
2018-05-01T11:58:29.479Z,52.23
2018-05-01T11:59:30.170Z,51.97
2018-05-01T12:00:30.876Z,50.26
2018-05-01T12:01:31.559Z,49.75
2018-05-01T12:02:32.305Z,50.96
2018-05-01T12:03:32.929Z,49.41
2018-05-01T12:04:33.638Z,49.00
2018-05-01T12:05:34.301Z,49.77
2018-05-01T12:06:34.997Z,48.74
2018-05-01T12:07:35.685Z,48.86
2018-05-01T12:08:36.363Z,48.66
2018-05-01T12:09:37.055Z,48.76
2018-05-01T12:10:37.816Z,48.23
2018-05-01T12:11:38.436Z,48.33
2018-05-01T12:12:39.140Z,48.35
2018-05-01T12:13:39.823Z,47.85
2018-05-01T12:14:40.507Z,48.23
2018-05-01T12:15:41.270Z,49.07
2018-05-01T12:16:41.880Z,49.29
2018-05-01T12:17:42.564Z,49.60
2018-05-01T12:18:43.246Z,48.90
2018-05-01T12:19:43.925Z,48.71
2018-05-01T12:20:44.605Z,48.81
2018-05-01T12:21:45.296Z,49.17
2018-05-01T12:22:45.973Z,50.30
2018-05-01T12:23:46.732Z,50.30
2018-05-01T12:24:47.352Z,49.91
2018-05-01T12:25:48.039Z,50.98
2018-05-01T12:26:48.725Z,50.95
2018-05-01T12:27:49.408Z,51.14
2018-05-01T12:28:50.102Z,51.24
2018-05-01T12:29:50.781Z,51.05
2018-05-01T12:30:51.460Z,51.24
2018-05-01T12:31:52.142Z,51.89
2018-05-01T12:32:52.827Z,52.22
2018-05-01T12:33:53.508Z,53.21
2018-05-01T12:34:54.206Z,53.81
2018-05-01T12:35:54.900Z,53.53
2018-05-01T12:36:55.602Z,52.92
2018-05-01T12:37:56.261Z,52.83
2018-05-01T12:38:56.951Z,52.54
2018-05-01T12:39:57.646Z,52.99
2018-05-01T12:40:58.330Z,52.89
2018-05-01T12:41:59.013Z,53.31
2018-05-01T12:42:59.697Z,52.54
2018-05-01T12:44:00.382Z,52.92
2018-05-01T12:45:01.064Z,52.51
2018-05-01T12:46:01.751Z,53.57
2018-05-01T12:47:02.433Z,53.50
2018-05-01T12:48:03.115Z,52.78
2018-05-01T12:49:03.796Z,51.46
2018-05-01T12:50:04.485Z,50.62
2018-05-01T12:51:05.165Z,50.13
2018-05-01T12:52:05.853Z,49.48
2018-05-01T12:53:06.532Z,49.32
2018-05-01T12:54:07.223Z,50.59
2018-05-01T12:55:07.896Z,49.73
2018-05-01T12:56:08.588Z,50.52
2018-05-01T12:57:09.261Z,51.32
2018-05-01T12:58:09.949Z,51.25
2018-05-01T12:59:10.716Z,50.76
2018-05-01T13:00:11.332Z,49.32
2018-05-01T13:01:12.014Z,48.25
2018-05-01T13:02:12.696Z,48.35
2018-05-01T13:03:13.388Z,48.54
2018-05-01T13:04:14.074Z,47.65
2018-05-01T13:05:14.812Z,47.09
2018-05-01T13:06:15.456Z,46.64
2018-05-01T13:07:16.141Z,45.86
2018-05-01T13:08:16.831Z,46.42
2018-05-01T13:09:17.517Z,46.23
2018-05-01T13:10:18.204Z,45.86
2018-05-01T13:11:18.899Z,46.08
2018-05-01T13:12:19.591Z,46.17
2018-05-01T13:13:20.285Z,45.76
2018-05-01T13:14:20.970Z,45.45
2018-05-01T13:15:21.652Z,46.06
2018-05-01T13:16:22.381Z,45.59
2018-05-01T13:17:23.076Z,45.59
2018-05-01T13:18:23.770Z,46.30
2018-05-01T13:19:24.455Z,45.74
2018-05-01T13:20:25.139Z,45.16
2018-05-01T13:21:25.789Z,45.47
2018-05-01T13:22:26.487Z,44.91
2018-05-01T13:23:27.187Z,42.20
2018-05-01T13:24:27.877Z,44.50
2018-05-01T13:25:28.573Z,43.38
2018-05-01T13:26:29.264Z,42.19
2018-05-01T13:27:29.950Z,40.75
2018-05-01T13:28:30.641Z,39.59
2018-05-01T13:29:31.326Z,38.91
2018-05-01T13:30:32.022Z,37.49
2018-05-01T13:31:32.710Z,37.27
2018-05-01T13:32:33.476Z,34.91
2018-05-01T13:33:34.094Z,33.23
2018-05-01T13:34:34.795Z,31.26
2018-05-01T13:35:35.491Z,28.00
2018-05-01T13:36:36.186Z,26.25
2018-05-01T13:37:36.872Z,24.93
2018-05-01T13:38:37.564Z,25.94
2018-05-01T13:39:38.260Z,24.92
2018-05-01T13:40:38.954Z,23.17
2018-05-01T13:41:39.641Z,23.67
2018-05-01T13:42:40.329Z,23.82
2018-05-01T13:43:41.033Z,25.79
2018-05-01T13:44:41.735Z,25.12
2018-05-01T13:45:42.433Z,26.05
2018-05-01T13:46:43.119Z,28.01
2018-05-01T13:47:43.810Z,28.77
2018-05-01T13:48:44.505Z,29.63
2018-05-01T13:49:45.189Z,31.61
2018-05-01T13:50:45.884Z,32.96
2018-05-01T13:51:46.566Z,33.33
2018-05-01T13:52:47.262Z,34.38
2018-05-01T13:53:47.964Z,34.48
2018-05-01T13:54:48.655Z,35.61
2018-05-01T13:55:49.347Z,35.37
2018-05-01T13:56:50.054Z,34.82
2018-05-01T13:57:50.739Z,34.12
2018-05-01T13:58:51.422Z,33.56
2018-05-01T13:59:52.114Z,33.81
2018-05-01T14:00:52.799Z,34.43
2018-05-01T14:01:53.487Z,33.93
2018-05-01T14:02:54.174Z,34.67
2018-05-01T14:03:54.868Z,34.64
2018-05-01T14:04:55.553Z,35.56
2018-05-01T14:05:56.247Z,37.19
2018-05-01T14:06:56.933Z,37.57
2018-05-01T14:07:57.632Z,38.13
2018-05-01T14:08:58.321Z,38.29
2018-05-01T14:09:59.012Z,35.88
2018-05-01T14:10:59.721Z,32.58
2018-05-01T14:12:00.408Z,30.20
2018-05-01T14:13:01.095Z,28.64
2018-05-01T14:14:01.783Z,26.15
2018-05-01T14:15:02.479Z,24.06
2018-05-01T14:16:03.163Z,22.56
2018-05-01T14:17:03.866Z,21.04
2018-05-01T14:18:04.559Z,20.08
2018-05-01T14:19:05.246Z,18.50
2018-05-01T14:20:05.933Z,18.07
2018-05-01T14:21:06.638Z,18.65
2018-05-01T14:22:07.368Z,19.02
2018-05-01T14:23:08.061Z,19.98
2018-05-01T14:24:08.750Z,20.76
2018-05-01T14:25:09.444Z,21.10
2018-05-01T14:26:10.138Z,22.69
2018-05-01T14:27:10.829Z,24.32
2018-05-01T14:28:11.519Z,24.59
2018-05-01T14:29:12.215Z,25.62
2018-05-01T14:30:12.890Z,25.83
2018-05-01T14:31:13.597Z,26.06
2018-05-01T14:32:14.284Z,24.40
2018-05-01T14:33:14.983Z,24.05
2018-05-01T14:34:15.678Z,23.88
2018-05-01T14:35:16.366Z,23.25
2018-05-01T14:36:17.052Z,21.23
2018-05-01T14:37:17.753Z,20.51
2018-05-01T14:38:18.448Z,19.48
2018-05-01T14:39:19.137Z,19.11
2018-05-01T14:40:19.844Z,18.84
2018-05-01T14:41:20.532Z,18.26
2018-05-01T14:42:21.232Z,18.10
2018-05-01T14:43:21.925Z,17.13
2018-05-01T14:44:22.630Z,17.18
2018-05-01T14:45:23.319Z,18.29
2018-05-01T14:46:24.015Z,18.63
2018-05-01T14:47:24.713Z,18.02
2018-05-01T14:48:25.405Z,18.14
2018-05-01T14:49:26.098Z,18.02
2018-05-01T14:50:26.800Z,18.07
2018-05-01T14:51:27.493Z,18.76
2018-05-01T14:52:28.183Z,18.20
2018-05-01T14:53:28.892Z,18.19
2018-05-01T14:54:29.593Z,17.54
2018-05-01T14:55:30.290Z,17.52
2018-05-01T14:56:30.981Z,18.52
2018-05-01T14:57:31.723Z,19.50
2018-05-01T14:58:32.417Z,19.73
2018-05-01T14:59:33.111Z,19.24
2018-05-01T15:00:33.817Z,18.94
2018-05-01T15:01:34.552Z,19.06
2018-05-01T15:02:35.202Z,18.57
2018-05-01T15:03:35.905Z,18.37
2018-05-01T15:04:36.605Z,19.48
2018-05-01T15:05:37.297Z,20.93
2018-05-01T15:06:37.991Z,22.09
2018-05-01T15:07:38.695Z,22.16
2018-05-01T15:08:39.384Z,23.00
2018-05-01T15:09:40.077Z,24.43
2018-05-01T15:10:40.781Z,25.27
2018-05-01T15:11:41.463Z,25.22
2018-05-01T15:12:42.163Z,24.52
2018-05-01T15:13:42.858Z,25.92
2018-05-01T15:14:43.557Z,27.79
2018-05-01T15:15:44.247Z,28.79
2018-05-01T15:16:44.939Z,29.16
2018-05-01T15:17:45.624Z,28.44
2018-05-01T15:18:46.321Z,27.92
2018-05-01T15:19:47.002Z,28.30
2018-05-01T15:20:47.698Z,28.58
2018-05-01T15:21:48.286Z,27.94
2018-05-01T15:22:49.075Z,27.79
2018-05-01T15:23:49.788Z,26.91
2018-05-01T15:24:50.475Z,27.59
2018-05-01T15:25:51.161Z,27.48
2018-05-01T15:26:51.857Z,27.51
2018-05-01T15:27:52.604Z,26.95
2018-05-01T15:28:53.282Z,26.57
2018-05-01T15:29:54.001Z,26.20
2018-05-01T15:30:54.667Z,26.00
2018-05-01T15:31:55.353Z,26.59
2018-05-01T15:32:56.051Z,25.83
2018-05-01T15:33:56.746Z,25.74
2018-05-01T15:34:57.452Z,25.35
2018-05-01T15:35:58.148Z,25.73
2018-05-01T15:36:58.841Z,25.27
2018-05-01T15:37:59.534Z,25.26
2018-05-01T15:39:00.228Z,25.63
2018-05-01T15:40:00.909Z,25.34
2018-05-01T15:41:01.605Z,25.44
2018-05-01T15:42:02.315Z,25.44
2018-05-01T15:43:02.987Z,25.05
2018-05-01T15:44:03.677Z,25.43
2018-05-01T15:45:04.436Z,25.81
2018-05-01T15:46:05.064Z,25.89
2018-05-01T15:47:05.748Z,25.99
2018-05-01T15:48:06.457Z,27.03
2018-05-01T15:49:07.158Z,27.51
2018-05-01T15:50:07.921Z,27.81
2018-05-01T15:51:08.545Z,27.90
2018-05-01T15:52:09.248Z,28.26
2018-05-01T15:53:09.960Z,28.44
2018-05-01T15:54:10.589Z,28.80
2018-05-01T15:55:11.334Z,30.33
2018-05-01T15:56:12.024Z,30.80
2018-05-01T15:57:12.712Z,31.08
2018-05-01T15:58:13.418Z,31.27
2018-05-01T15:59:14.193Z,31.68
2018-05-01T16:00:14.887Z,31.97
2018-05-01T16:01:15.579Z,31.00
2018-05-01T16:02:16.273Z,31.68
2018-05-01T16:03:16.961Z,31.27
2018-05-01T16:04:17.650Z,31.55
2018-05-01T16:05:18.337Z,32.04
2018-05-01T16:06:19.024Z,32.42
2018-05-01T16:07:19.709Z,32.04
2018-05-01T16:08:20.393Z,32.52
2018-05-01T16:09:21.080Z,33.02
2018-05-01T16:10:21.768Z,32.12
2018-05-01T16:11:22.455Z,32.41
2018-05-01T16:12:23.140Z,32.91
2018-05-01T16:13:23.825Z,32.42
2018-05-01T16:14:24.522Z,32.44
2018-05-01T16:15:25.212Z,32.04
2018-05-01T16:16:25.910Z,31.95
2018-05-01T16:17:26.600Z,32.71
2018-05-01T16:18:27.288Z,32.15
2018-05-01T16:19:27.974Z,32.34
2018-05-01T16:20:28.660Z,32.45
2018-05-01T16:21:29.346Z,32.94
2018-05-01T16:22:30.036Z,32.41
2018-05-01T16:23:30.728Z,32.62
2018-05-01T16:24:31.421Z,32.41
2018-05-01T16:25:32.099Z,32.97
2018-05-01T16:26:32.803Z,33.46
2018-05-01T16:27:33.504Z,33.25
2018-05-01T16:28:34.197Z,33.62
2018-05-01T16:29:34.885Z,34.19
2018-05-01T16:30:35.577Z,34.84
2018-05-01T16:31:36.275Z,34.78
2018-05-01T16:32:36.964Z,34.77
2018-05-01T16:33:37.652Z,34.49
2018-05-01T16:34:38.345Z,34.69
2018-05-01T16:35:39.027Z,34.61
2018-05-01T16:36:39.715Z,34.39
2018-05-01T16:37:40.413Z,34.30
2018-05-01T16:38:41.115Z,34.39
2018-05-01T16:39:41.803Z,34.11
2018-05-01T16:40:42.489Z,34.49
2018-05-01T16:41:43.190Z,34.78
2018-05-01T16:42:43.887Z,34.78
2018-05-01T16:43:44.592Z,34.96
2018-05-01T16:44:45.278Z,34.67
2018-05-01T16:45:45.957Z,34.69
2018-05-01T16:46:46.655Z,34.69
2018-05-01T16:47:47.343Z,35.07
2018-05-01T16:48:48.032Z,34.96
2018-05-01T16:49:48.720Z,35.44
2018-05-01T16:50:49.400Z,35.17
2018-05-01T16:51:50.091Z,34.97
2018-05-01T16:52:50.783Z,34.99
2018-05-01T16:53:51.492Z,34.78
2018-05-01T16:54:52.183Z,34.88
2018-05-01T16:55:52.871Z,34.80
2018-05-01T16:56:53.573Z,34.62
2018-05-01T16:57:54.255Z,33.86
2018-05-01T16:58:54.958Z,33.28
2018-05-01T16:59:55.644Z,34.20
2018-05-01T17:00:56.367Z,34.69
2018-05-01T17:01:57.061Z,34.31
2018-05-01T17:02:57.757Z,34.01
2018-05-01T17:03:58.450Z,34.59
2018-05-01T17:04:59.145Z,34.77
2018-05-01T17:05:59.842Z,35.15
2018-05-01T17:07:00.547Z,34.86
2018-05-01T17:08:01.232Z,35.23
2018-05-01T17:09:01.919Z,35.41
2018-05-01T17:10:02.610Z,35.86
2018-05-01T17:11:03.301Z,37.13
2018-05-01T17:12:03.987Z,37.02
2018-05-01T17:13:04.695Z,37.85
2018-05-01T17:14:05.389Z,38.91
2018-05-01T17:15:06.069Z,39.26
2018-05-01T17:16:06.748Z,40.01
2018-05-01T17:17:07.435Z,40.49
2018-05-01T17:18:08.137Z,40.69
2018-05-01T17:19:08.825Z,40.69
2018-05-01T17:20:09.507Z,40.66
2018-05-01T17:21:10.200Z,41.63
2018-05-01T17:22:10.885Z,41.14
2018-05-01T17:23:11.567Z,41.44
2018-05-01T17:24:12.256Z,42.07
2018-05-01T17:25:12.948Z,42.86
2018-05-01T17:26:13.630Z,43.44
2018-05-01T17:27:14.317Z,43.51
2018-05-01T17:28:14.997Z,43.61
2018-05-01T17:29:15.764Z,43.90
2018-05-01T17:30:16.415Z,43.99
2018-05-01T17:31:17.095Z,44.09
2018-05-01T17:32:17.783Z,44.19
2018-05-01T17:33:18.473Z,44.11
2018-05-01T17:34:19.163Z,43.61
2018-05-01T17:35:19.842Z,44.17
2018-05-01T17:36:20.529Z,44.48
2018-05-01T17:37:21.212Z,44.28
2018-05-01T17:38:21.907Z,44.76
2018-05-01T17:39:22.597Z,44.76
2018-05-01T17:40:23.289Z,44.96
2018-05-01T17:41:23.981Z,45.51
2018-05-01T17:42:24.665Z,45.53
2018-05-01T17:43:25.350Z,45.42
2018-05-01T17:44:26.095Z,45.70
2018-05-01T17:45:26.719Z,45.80
2018-05-01T17:46:27.398Z,45.90
2018-05-01T17:47:28.088Z,46.09
2018-05-01T17:48:28.778Z,46.26
2018-05-01T17:49:29.465Z,46.45
2018-05-01T17:50:30.149Z,46.74
2018-05-01T17:51:30.834Z,47.13
2018-05-01T17:52:31.524Z,47.61
2018-05-01T17:53:32.201Z,47.31
2018-05-01T17:54:32.887Z,47.70
2018-05-01T17:55:33.571Z,47.89
2018-05-01T17:56:34.252Z,48.08
2018-05-01T17:57:34.949Z,47.97
2018-05-01T17:58:35.629Z,48.45
2018-05-01T17:59:36.315Z,49.02
2018-05-01T18:00:37.003Z,49.12
2018-05-01T18:01:37.685Z,49.02
2018-05-01T18:02:38.365Z,49.22
2018-05-01T18:03:39.044Z,49.67
2018-05-01T18:04:39.728Z,49.87
2018-05-01T18:05:40.426Z,50.70
2018-05-01T18:06:41.115Z,50.80
2018-05-01T18:07:41.791Z,50.70
2018-05-01T18:08:42.477Z,51.47
2018-05-01T18:09:43.156Z,51.57
2018-05-01T18:10:43.847Z,51.76
2018-05-01T18:11:44.520Z,51.76
2018-05-01T18:12:45.212Z,52.05
2018-05-01T18:13:45.898Z,52.05
2018-05-01T18:14:46.600Z,52.53
2018-05-01T18:15:47.323Z,52.24
2018-05-01T18:16:47.976Z,52.50
2018-05-01T18:17:48.686Z,52.89
2018-05-01T18:18:49.367Z,52.79
2018-05-01T18:19:50.048Z,53.27
2018-05-01T18:20:50.735Z,53.08
2018-05-01T18:21:51.419Z,53.27
2018-05-01T18:22:52.096Z,53.56
2018-05-01T18:23:52.774Z,53.66
2018-05-01T18:24:53.458Z,54.39
2018-05-01T18:25:54.135Z,54.13
2018-05-01T18:26:54.854Z,54.49
2018-05-01T18:27:55.532Z,54.49
2018-05-01T18:28:56.224Z,54.68
2018-05-01T18:29:56.907Z,54.30
2018-05-01T18:30:57.582Z,54.49
2018-05-01T18:31:58.280Z,54.88
2018-05-01T18:32:58.960Z,55.07
2018-05-01T18:33:59.643Z,55.07
2018-05-01T18:35:00.314Z,55.07
2018-05-01T18:36:01.005Z,54.97
2018-05-01T18:37:01.683Z,55.13
2018-05-01T18:38:02.373Z,55.26
2018-05-01T18:39:03.060Z,55.13
2018-05-01T18:40:03.740Z,61.08
2018-05-01T18:41:04.416Z,61.15
2018-05-01T18:42:05.094Z,63.54
2018-05-01T18:43:05.785Z,65.55
2018-05-01T18:44:06.461Z,66.51
2018-05-01T18:45:07.159Z,65.65
2018-05-01T18:46:07.834Z,63.35
2018-05-01T18:47:08.512Z,65.36
2018-05-01T18:48:09.203Z,64.31
2018-05-01T18:49:09.880Z,67.85
2018-05-01T18:50:10.555Z,67.54
2018-05-01T18:51:11.240Z,65.33
2018-05-01T18:52:11.925Z,65.91
2018-05-01T18:53:12.601Z,66.67
2018-05-01T18:54:13.283Z,66.00
2018-05-01T18:55:13.987Z,64.76
2018-05-01T18:56:14.668Z,65.71
2018-05-01T18:57:15.358Z,66.45
2018-05-01T18:58:16.049Z,65.81
2018-05-01T18:59:16.732Z,67.60
2018-05-01T19:00:17.461Z,66.93
2018-05-01T19:01:18.110Z,68.46
2018-05-01T19:02:18.784Z,69.13
2018-05-01T19:03:19.474Z,67.69
2018-05-01T19:04:20.195Z,66.93
2018-05-01T19:05:20.824Z,67.69
2018-05-01T19:06:21.412Z,68.36
2018-05-01T19:07:22.196Z,68.17
2018-05-01T19:08:22.876Z,67.98
2018-05-01T19:09:23.622Z,67.11
2018-05-01T19:10:24.315Z,68.17
2018-05-01T19:11:24.932Z,66.16
2018-05-01T19:12:25.607Z,66.61
2018-05-01T19:13:26.286Z,66.13
2018-05-01T19:14:26.968Z,67.18
2018-05-01T19:15:27.671Z,67.08
2018-05-01T19:16:28.330Z,66.61
2018-05-01T19:17:29.019Z,67.27
2018-05-01T19:18:29.696Z,66.70
2018-05-01T19:19:30.374Z,66.99
2018-05-01T19:20:31.067Z,66.61
2018-05-01T19:21:31.764Z,66.70
2018-05-01T19:22:32.446Z,67.47
2018-05-01T19:23:33.111Z,66.89
2018-05-01T19:24:33.787Z,67.72
2018-05-01T19:25:34.474Z,67.14
2018-05-01T19:26:35.160Z,68.10
2018-05-01T19:27:35.833Z,67.82
2018-05-01T19:28:36.513Z,67.34
2018-05-01T19:29:37.187Z,67.91
2018-05-01T19:30:37.866Z,67.72
2018-05-01T19:31:38.550Z,67.53
2018-05-01T19:32:39.231Z,67.24
2018-05-01T19:33:39.899Z,67.24
2018-05-01T19:34:40.584Z,67.43
2018-05-01T19:35:41.261Z,67.14
2018-05-01T19:36:41.937Z,67.34
2018-05-01T19:37:42.618Z,67.05
2018-05-01T19:38:43.305Z,67.30
2018-05-01T19:39:43.982Z,67.63
2018-05-01T19:40:44.673Z,67.30
2018-05-01T19:41:45.346Z,67.59
2018-05-01T19:42:46.039Z,67.40
2018-05-01T19:43:46.710Z,67.69
2018-05-01T19:44:47.386Z,67.59
2018-05-01T19:45:48.069Z,67.78
2018-05-01T19:46:48.759Z,68.07
2018-05-01T19:47:49.439Z,67.88
2018-05-01T19:48:50.127Z,67.88
2018-05-01T19:49:50.818Z,68.07
2018-05-01T19:50:51.556Z,68.35
2018-05-01T19:51:52.169Z,68.26
2018-05-01T19:52:52.849Z,68.41
2018-05-01T19:53:53.542Z,68.04
2018-05-01T19:54:54.219Z,68.32
2018-05-01T19:55:54.902Z,68.51
2018-05-01T19:56:55.577Z,68.32
2018-05-01T19:57:56.253Z,68.41
2018-05-01T19:58:56.951Z,67.84
2018-05-01T19:59:57.623Z,68.23
2018-05-01T20:00:58.299Z,68.32
2018-05-01T20:01:58.982Z,68.41
2018-05-01T20:02:59.657Z,68.23
2018-05-01T20:04:00.332Z,68.13
2018-05-01T20:05:01.004Z,68.13
2018-05-01T20:06:01.681Z,68.51
2018-05-01T20:07:02.361Z,68.70
2018-05-01T20:08:03.030Z,68.61
2018-05-01T20:09:03.710Z,68.90
2018-05-01T20:10:04.379Z,69.15
2018-05-01T20:11:05.060Z,68.99
2018-05-01T20:12:05.728Z,69.09
2018-05-01T20:13:06.406Z,69.15
2018-05-01T20:14:07.082Z,69.43
2018-05-01T20:15:07.761Z,69.34
2018-05-01T20:16:08.439Z,70.01
2018-05-01T20:17:09.120Z,69.05
2018-05-01T20:18:09.791Z,69.62
2018-05-01T20:19:10.469Z,70.01
2018-05-01T20:20:11.159Z,70.48
2018-05-01T20:21:11.835Z,70.10
2018-05-01T20:22:12.514Z,70.29
2018-05-01T20:23:13.202Z,70.29
2018-05-01T20:24:13.862Z,70.20
2018-05-01T20:25:14.536Z,70.48
2018-05-01T20:26:15.207Z,71.02
2018-05-01T20:27:15.885Z,70.77
2018-05-01T20:28:16.562Z,70.92
2018-05-01T20:29:17.239Z,70.64
2018-05-01T20:30:17.977Z,70.73
2018-05-01T20:31:18.583Z,70.87
2018-05-01T20:32:19.265Z,70.92
2018-05-01T20:33:19.943Z,70.29
2018-05-01T20:34:20.617Z,70.87
2018-05-01T20:35:21.296Z,70.64
2018-05-01T20:36:21.969Z,70.83
2018-05-01T20:37:22.718Z,70.54
2018-05-01T20:38:23.318Z,71.21
2018-05-01T20:39:23.999Z,70.92
2018-05-01T20:40:24.688Z,70.83
2018-05-01T20:41:25.362Z,71.50
2018-05-01T20:42:26.031Z,71.50
2018-05-01T20:43:26.707Z,71.12
2018-05-01T20:44:27.447Z,71.69
2018-05-01T20:45:28.056Z,72.17
2018-05-01T20:46:28.729Z,71.78
2018-05-01T20:47:29.396Z,71.78
2018-05-01T20:48:30.065Z,71.98
2018-05-01T20:49:30.749Z,72.42
2018-05-01T20:50:31.421Z,73.18
2018-05-01T20:51:32.102Z,73.66
2018-05-01T20:52:32.783Z,72.80
2018-05-01T20:53:33.457Z,73.37
2018-05-01T20:54:34.128Z,72.89
2018-05-01T20:55:34.809Z,72.89
2018-05-01T20:56:35.516Z,73.37
2018-05-01T20:57:36.173Z,73.08
2018-05-01T20:58:36.849Z,73.56
2018-05-01T20:59:37.520Z,73.66
2018-05-01T21:00:38.194Z,73.37
2018-05-01T21:01:38.869Z,72.89
2018-05-01T21:02:39.545Z,73.28
2018-05-01T21:03:40.217Z,73.37
2018-05-01T21:04:40.894Z,73.37
2018-05-01T21:05:41.575Z,73.75
2018-05-01T21:06:42.246Z,73.47
2018-05-01T21:07:42.922Z,73.56
2018-05-01T21:08:43.594Z,73.24
2018-05-01T21:09:44.270Z,73.72
2018-05-01T21:10:44.938Z,73.56
2018-05-01T21:11:45.610Z,73.72
2018-05-01T21:12:46.280Z,73.81
2018-05-01T21:13:46.955Z,74.10
2018-05-01T21:14:47.625Z,73.91
2018-05-01T21:15:48.297Z,74.01
2018-05-01T21:16:48.971Z,74.67
2018-05-01T21:17:49.643Z,74.57
2018-05-01T21:18:50.312Z,74.29
2018-05-01T21:19:50.985Z,74.48
2018-05-01T21:20:51.657Z,74.96
2018-05-01T21:21:52.330Z,74.96
2018-05-01T21:22:53.000Z,74.67
2018-05-01T21:23:53.674Z,74.67
2018-05-01T21:24:54.349Z,74.96
2018-05-01T21:25:55.021Z,74.77
2018-05-01T21:26:55.691Z,74.86
2018-05-01T21:27:56.365Z,74.67
2018-05-01T21:28:57.130Z,74.77
2018-05-01T21:29:57.704Z,74.86
2018-05-01T21:30:58.385Z,74.77
2018-05-01T21:31:59.059Z,74.86
2018-05-01T21:32:59.726Z,75.43
2018-05-01T21:34:00.400Z,75.05
2018-05-01T21:35:01.074Z,74.86
2018-05-01T21:36:01.746Z,74.86
2018-05-01T21:37:02.418Z,74.86
2018-05-01T21:38:03.094Z,75.34
2018-05-01T21:39:03.766Z,75.05
2018-05-01T21:40:04.440Z,74.96
2018-05-01T21:41:05.117Z,74.96
2018-05-01T21:42:05.798Z,75.34
2018-05-01T21:43:06.499Z,75.15
2018-05-01T21:44:07.147Z,74.92
2018-05-01T21:45:07.820Z,75.20
2018-05-01T21:46:08.490Z,76.06
2018-05-01T21:47:09.159Z,75.68
2018-05-01T21:48:09.829Z,76.25
2018-05-01T21:49:10.501Z,76.16
2018-05-01T21:50:11.235Z,76.35
2018-05-01T21:51:11.881Z,76.54
2018-05-01T21:52:12.513Z,76.54
2018-05-01T21:53:13.183Z,76.54
2018-05-01T21:54:13.855Z,76.73
2018-05-01T21:55:14.525Z,76.73
2018-05-01T21:56:15.194Z,76.73
2018-05-01T21:57:15.963Z,76.25
2018-05-01T21:58:16.538Z,76.92
2018-05-01T21:59:17.214Z,76.92
2018-05-01T22:00:17.884Z,76.35
2018-05-01T22:01:18.555Z,76.25
2018-05-01T22:02:19.227Z,76.82
2018-05-01T22:03:19.899Z,76.31
2018-05-01T22:04:20.570Z,76.82
2018-05-01T22:05:21.240Z,76.88
2018-05-01T22:06:21.924Z,76.73
2018-05-01T22:07:22.589Z,76.82
2018-05-01T22:08:23.260Z,77.11
2018-05-01T22:09:23.940Z,76.98
2018-05-01T22:10:24.611Z,77.01
2018-05-01T22:11:25.283Z,77.07
2018-05-01T22:12:25.960Z,76.88